sensor_id;sensor_type;location;lat;lon;timestamp;P1;durP1;ratioP1;P2;durP2;ratioP2
11691;SDS011;33659;42.672;23.354;2023-08-01T00:00:08;2.65;;;1.65;;
11691;SDS011;33659;42.672;23.354;2023-08-01T00:02:37;1.75;;;1.65;;
11691;SDS011;33659;42.672;23.354;2023-08-01T00:05:04;7.68;;;1.83;;
11691;SDS011;33659;42.672;23.354;2023-08-01T00:07:32;1.90;;;1.80;;
11691;SDS011;33659;42.672;23.354;2023-08-01T00:09:59;2.30;;;2.08;;
11691;SDS011;33659;42.672;23.354;2023-08-01T00:12:27;5.72;;;1.98;;
11691;SDS011;33659;42.672;23.354;2023-08-01T00:14:53;1.90;;;1.63;;
11691;SDS011;33659;42.672;23.354;2023-08-01T00:17:20;1.88;;;1.77;;
11691;SDS011;33659;42.672;23.354;2023-08-01T00:19:47;1.90;;;1.80;;
11691;SDS011;33659;42.672;23.354;2023-08-01T00:22:13;2.42;;;2.03;;
11691;SDS011;33659;42.672;23.354;2023-08-01T00:24:42;1.40;;;1.33;;
11691;SDS011;33659;42.672;23.354;2023-08-01T00:27:08;1.60;;;1.50;;
11691;SDS011;33659;42.672;23.354;2023-08-01T00:29:35;1.80;;;1.70;;
11691;SDS011;33659;42.672;23.354;2023-08-01T00:32:02;2.10;;;1.80;;
11691;SDS011;33659;42.672;23.354;2023-08-01T00:34:29;3.35;;;1.77;;
11691;SDS011;33659;42.672;23.354;2023-08-01T00:36:56;2.13;;;1.92;;
11691;SDS011;33659;42.672;23.354;2023-08-01T00:39:23;3.58;;;2.00;;
11691;SDS011;33659;42.672;23.354;2023-08-01T00:41:51;1.90;;;1.60;;
11691;SDS011;33659;42.672;23.354;2023-08-01T00:44:18;2.45;;;1.92;;
11691;SDS011;33659;42.672;23.354;2023-08-01T00:46:45;2.75;;;1.98;;
11691;SDS011;33659;42.672;23.354;2023-08-01T00:49:12;1.80;;;1.63;;
11691;SDS011;33659;42.672;23.354;2023-08-01T00:51:39;2.65;;;2.08;;
11691;SDS011;33659;42.672;23.354;2023-08-01T00:54:07;1.90;;;1.70;;
11691;SDS011;33659;42.672;23.354;2023-08-01T00:56:33;2.15;;;1.70;;
11691;SDS011;33659;42.672;23.354;2023-08-01T00:59:02;2.67;;;1.98;;
11691;SDS011;33659;42.672;23.354;2023-08-01T01:01:28;2.15;;;1.92;;
11691;SDS011;33659;42.672;23.354;2023-08-01T01:03:55;2.00;;;1.83;;
11691;SDS011;33659;42.672;23.354;2023-08-01T01:06:23;1.75;;;1.50;;
11691;SDS011;33659;42.672;23.354;2023-08-01T01:08:53;2.90;;;1.88;;
11691;SDS011;33659;42.672;23.354;2023-08-01T01:11:20;3.00;;;1.73;;
11691;SDS011;33659;42.672;23.354;2023-08-01T01:13:47;2.95;;;1.70;;
11691;SDS011;33659;42.672;23.354;2023-08-01T01:16:15;2.40;;;2.20;;
11691;SDS011;33659;42.672;23.354;2023-08-01T01:18:42;1.77;;;1.40;;
11691;SDS011;33659;42.672;23.354;2023-08-01T01:21:10;2.20;;;2.00;;
11691;SDS011;33659;42.672;23.354;2023-08-01T01:23:36;1.85;;;1.70;;
11691;SDS011;33659;42.672;23.354;2023-08-01T01:26:05;2.17;;;1.40;;
11691;SDS011;33659;42.672;23.354;2023-08-01T01:28:33;3.38;;;2.10;;
11691;SDS011;33659;42.672;23.354;2023-08-01T01:31:02;3.88;;;2.28;;
11691;SDS011;33659;42.672;23.354;2023-08-01T01:33:28;2.60;;;1.85;;
11691;SDS011;33659;42.672;23.354;2023-08-01T01:35:55;2.35;;;1.70;;
11691;SDS011;33659;42.672;23.354;2023-08-01T01:38:24;3.05;;;2.15;;
11691;SDS011;33659;42.672;23.354;2023-08-01T01:40:50;3.45;;;2.00;;
11691;SDS011;33659;42.672;23.354;2023-08-01T01:43:17;1.98;;;1.77;;
11691;SDS011;33659;42.672;23.354;2023-08-01T01:45:44;2.20;;;1.95;;
11691;SDS011;33659;42.672;23.354;2023-08-01T01:48:10;1.98;;;1.77;;
11691;SDS011;33659;42.672;23.354;2023-08-01T01:50:37;4.82;;;2.22;;
11691;SDS011;33659;42.672;23.354;2023-08-01T01:53:04;1.70;;;1.23;;
11691;SDS011;33659;42.672;23.354;2023-08-01T01:55:32;3.67;;;1.90;;
11691;SDS011;33659;42.672;23.354;2023-08-01T01:57:59;1.63;;;1.52;;
11691;SDS011;33659;42.672;23.354;2023-08-01T02:00:26;1.70;;;1.60;;
11691;SDS011;33659;42.672;23.354;2023-08-01T02:02:53;4.10;;;1.77;;
11691;SDS011;33659;42.672;23.354;2023-08-01T02:05:20;3.95;;;1.80;;
11691;SDS011;33659;42.672;23.354;2023-08-01T02:07:46;2.05;;;1.80;;
11691;SDS011;33659;42.672;23.354;2023-08-01T02:10:13;1.67;;;1.58;;
11691;SDS011;33659;42.672;23.354;2023-08-01T02:12:41;2.47;;;1.50;;
11691;SDS011;33659;42.672;23.354;2023-08-01T02:15:08;2.00;;;1.65;;
11691;SDS011;33659;42.672;23.354;2023-08-01T02:17:35;5.47;;;1.83;;
11691;SDS011;33659;42.672;23.354;2023-08-01T02:20:02;1.83;;;1.63;;
11691;SDS011;33659;42.672;23.354;2023-08-01T02:22:29;2.67;;;1.80;;
11691;SDS011;33659;42.672;23.354;2023-08-01T02:24:56;2.08;;;1.70;;
11691;SDS011;33659;42.672;23.354;2023-08-01T02:27:23;2.83;;;2.30;;
11691;SDS011;33659;42.672;23.354;2023-08-01T02:29:51;2.95;;;2.33;;
11691;SDS011;33659;42.672;23.354;2023-08-01T02:32:18;1.95;;;1.85;;
11691;SDS011;33659;42.672;23.354;2023-08-01T02:34:45;2.40;;;2.20;;
11691;SDS011;33659;42.672;23.354;2023-08-01T02:37:12;2.33;;;2.13;;
11691;SDS011;33659;42.672;23.354;2023-08-01T02:39:39;2.10;;;1.70;;
11691;SDS011;33659;42.672;23.354;2023-08-01T02:42:06;2.00;;;1.80;;
11691;SDS011;33659;42.672;23.354;2023-08-01T02:44:33;2.15;;;1.70;;
11691;SDS011;33659;42.672;23.354;2023-08-01T02:47:01;1.65;;;1.55;;
11691;SDS011;33659;42.672;23.354;2023-08-01T02:49:28;2.28;;;2.08;;
11691;SDS011;33659;42.672;23.354;2023-08-01T02:51:55;8.60;;;1.90;;
11691;SDS011;33659;42.672;23.354;2023-08-01T02:54:21;1.88;;;1.77;;
11691;SDS011;33659;42.672;23.354;2023-08-01T02:56:48;2.20;;;1.77;;
11691;SDS011;33659;42.672;23.354;2023-08-01T02:59:15;2.47;;;1.85;;
11691;SDS011;33659;42.672;23.354;2023-08-01T03:01:43;4.28;;;2.15;;
11691;SDS011;33659;42.672;23.354;2023-08-01T03:04:11;3.85;;;1.85;;
11691;SDS011;33659;42.672;23.354;2023-08-01T03:06:38;3.30;;;1.70;;
11691;SDS011;33659;42.672;23.354;2023-08-01T03:09:05;3.00;;;2.08;;
11691;SDS011;33659;42.672;23.354;2023-08-01T03:11:33;2.65;;;1.95;;
11691;SDS011;33659;42.672;23.354;2023-08-01T03:14:01;3.70;;;2.75;;
11691;SDS011;33659;42.672;23.354;2023-08-01T03:16:29;2.65;;;2.42;;
11691;SDS011;33659;42.672;23.354;2023-08-01T03:18:56;2.50;;;2.22;;
11691;SDS011;33659;42.672;23.354;2023-08-01T03:21:26;2.28;;;2.00;;
11691;SDS011;33659;42.672;23.354;2023-08-01T03:23:53;2.20;;;2.00;;
11691;SDS011;33659;42.672;23.354;2023-08-01T03:26:20;2.17;;;1.98;;
11691;SDS011;33659;42.672;23.354;2023-08-01T03:28:47;1.67;;;1.48;;
11691;SDS011;33659;42.672;23.354;2023-08-01T03:31:13;3.53;;;1.67;;
11691;SDS011;33659;42.672;23.354;2023-08-01T03:33:40;3.08;;;2.17;;
11691;SDS011;33659;42.672;23.354;2023-08-01T03:36:07;2.80;;;2.60;;
11691;SDS011;33659;42.672;23.354;2023-08-01T03:38:35;4.43;;;3.15;;
11691;SDS011;33659;42.672;23.354;2023-08-01T03:41:02;3.55;;;3.20;;
11691;SDS011;33659;42.672;23.354;2023-08-01T03:43:29;4.13;;;3.00;;
11691;SDS011;33659;42.672;23.354;2023-08-01T03:45:56;4.40;;;3.08;;
11691;SDS011;33659;42.672;23.354;2023-08-01T03:48:23;3.70;;;3.40;;
11691;SDS011;33659;42.672;23.354;2023-08-01T03:50:50;3.58;;;2.63;;
11691;SDS011;33659;42.672;23.354;2023-08-01T03:53:16;3.50;;;3.20;;
11691;SDS011;33659;42.672;23.354;2023-08-01T03:55:46;3.70;;;2.80;;
11691;SDS011;33659;42.672;23.354;2023-08-01T03:58:13;4.07;;;2.80;;
11691;SDS011;33659;42.672;23.354;2023-08-01T04:00:40;6.05;;;3.03;;
11691;SDS011;33659;42.672;23.354;2023-08-01T04:03:07;5.10;;;3.08;;
11691;SDS011;33659;42.672;23.354;2023-08-01T04:05:33;8.80;;;3.30;;
11691;SDS011;33659;42.672;23.354;2023-08-01T04:08:00;3.00;;;2.70;;
11691;SDS011;33659;42.672;23.354;2023-08-01T04:10:27;4.32;;;3.00;;
11691;SDS011;33659;42.672;23.354;2023-08-01T04:12:56;6.32;;;2.90;;
11691;SDS011;33659;42.672;23.354;2023-08-01T04:15:22;5.13;;;2.90;;
11691;SDS011;33659;42.672;23.354;2023-08-01T04:17:49;3.83;;;2.97;;
11691;SDS011;33659;42.672;23.354;2023-08-01T04:20:16;3.00;;;2.65;;
11691;SDS011;33659;42.672;23.354;2023-08-01T04:22:43;2.80;;;2.60;;
11691;SDS011;33659;42.672;23.354;2023-08-01T04:25:09;5.22;;;2.70;;
11691;SDS011;33659;42.672;23.354;2023-08-01T04:27:36;3.45;;;2.72;;
11691;SDS011;33659;42.672;23.354;2023-08-01T04:30:05;3.13;;;2.55;;
11691;SDS011;33659;42.672;23.354;2023-08-01T04:32:32;2.70;;;2.50;;
11691;SDS011;33659;42.672;23.354;2023-08-01T04:34:59;3.00;;;2.63;;
11691;SDS011;33659;42.672;23.354;2023-08-01T04:37:26;3.25;;;2.50;;
11691;SDS011;33659;42.672;23.354;2023-08-01T04:39:52;3.03;;;2.70;;
11691;SDS011;33659;42.672;23.354;2023-08-01T04:42:19;3.40;;;2.67;;
11691;SDS011;33659;42.672;23.354;2023-08-01T04:44:46;3.70;;;2.80;;
11691;SDS011;33659;42.672;23.354;2023-08-01T04:47:14;3.10;;;2.50;;
11691;SDS011;33659;42.672;23.354;2023-08-01T04:49:40;5.47;;;2.78;;
11691;SDS011;33659;42.672;23.354;2023-08-01T04:52:07;5.72;;;3.03;;
11691;SDS011;33659;42.672;23.354;2023-08-01T04:54:34;3.17;;;2.88;;
11691;SDS011;33659;42.672;23.354;2023-08-01T04:57:01;5.90;;;3.42;;
11691;SDS011;33659;42.672;23.354;2023-08-01T04:59:27;3.75;;;2.78;;
11691;SDS011;33659;42.672;23.354;2023-08-01T05:01:54;4.38;;;2.90;;
11691;SDS011;33659;42.672;23.354;2023-08-01T05:04:22;4.13;;;2.83;;
11691;SDS011;33659;42.672;23.354;2023-08-01T05:06:51;4.60;;;4.15;;
11691;SDS011;33659;42.672;23.354;2023-08-01T05:09:18;3.30;;;2.75;;
11691;SDS011;33659;42.672;23.354;2023-08-01T05:11:44;4.25;;;2.75;;
11691;SDS011;33659;42.672;23.354;2023-08-01T05:14:11;3.25;;;2.80;;
11691;SDS011;33659;42.672;23.354;2023-08-01T05:16:38;4.72;;;2.65;;
11691;SDS011;33659;42.672;23.354;2023-08-01T05:19:04;3.47;;;2.40;;
11691;SDS011;33659;42.672;23.354;2023-08-01T05:21:32;3.75;;;2.45;;
11691;SDS011;33659;42.672;23.354;2023-08-01T05:23:59;5.88;;;2.50;;
11691;SDS011;33659;42.672;23.354;2023-08-01T05:26:26;3.85;;;2.80;;
11691;SDS011;33659;42.672;23.354;2023-08-01T05:28:53;3.65;;;2.53;;
11691;SDS011;33659;42.672;23.354;2023-08-01T05:31:19;5.00;;;2.92;;
11691;SDS011;33659;42.672;23.354;2023-08-01T05:33:46;5.25;;;2.70;;
11691;SDS011;33659;42.672;23.354;2023-08-01T05:36:13;4.45;;;2.97;;
11691;SDS011;33659;42.672;23.354;2023-08-01T05:38:41;3.83;;;2.40;;
11691;SDS011;33659;42.672;23.354;2023-08-01T05:41:08;2.80;;;2.40;;
11691;SDS011;33659;42.672;23.354;2023-08-01T05:43:34;2.83;;;2.45;;
11691;SDS011;33659;42.672;23.354;2023-08-01T05:46:01;3.17;;;2.88;;
11691;SDS011;33659;42.672;23.354;2023-08-01T05:48:28;4.60;;;2.90;;
11691;SDS011;33659;42.672;23.354;2023-08-01T05:50:54;7.45;;;2.58;;
11691;SDS011;33659;42.672;23.354;2023-08-01T05:53:23;4.78;;;2.53;;
11691;SDS011;33659;42.672;23.354;2023-08-01T05:55:51;2.95;;;2.65;;
11691;SDS011;33659;42.672;23.354;2023-08-01T05:58:18;4.88;;;2.80;;
11691;SDS011;33659;42.672;23.354;2023-08-01T06:00:45;3.05;;;2.63;;
11691;SDS011;33659;42.672;23.354;2023-08-01T06:03:12;7.45;;;3.00;;
11691;SDS011;33659;42.672;23.354;2023-08-01T06:05:38;2.95;;;2.70;;
11691;SDS011;33659;42.672;23.354;2023-08-01T06:08:06;3.13;;;2.60;;
11691;SDS011;33659;42.672;23.354;2023-08-01T06:10:34;3.67;;;2.75;;
11691;SDS011;33659;42.672;23.354;2023-08-01T06:13:02;2.78;;;2.40;;
11691;SDS011;33659;42.672;23.354;2023-08-01T06:15:29;3.08;;;2.58;;
11691;SDS011;33659;42.672;23.354;2023-08-01T06:17:56;2.55;;;2.35;;
11691;SDS011;33659;42.672;23.354;2023-08-01T06:20:22;4.93;;;2.65;;
11691;SDS011;33659;42.672;23.354;2023-08-01T06:22:49;2.65;;;2.03;;
11691;SDS011;33659;42.672;23.354;2023-08-01T06:25:16;2.95;;;2.05;;
11691;SDS011;33659;42.672;23.354;2023-08-01T06:27:43;6.07;;;2.75;;
11691;SDS011;33659;42.672;23.354;2023-08-01T06:30:11;2.75;;;2.47;;
11691;SDS011;33659;42.672;23.354;2023-08-01T06:32:38;4.28;;;2.78;;
11691;SDS011;33659;42.672;23.354;2023-08-01T06:35:05;4.28;;;2.63;;
11691;SDS011;33659;42.672;23.354;2023-08-01T06:37:32;5.20;;;3.40;;
11691;SDS011;33659;42.672;23.354;2023-08-01T06:40:00;4.00;;;3.10;;
11691;SDS011;33659;42.672;23.354;2023-08-01T06:42:28;7.45;;;3.22;;
11691;SDS011;33659;42.672;23.354;2023-08-01T06:44:54;3.78;;;3.13;;
11691;SDS011;33659;42.672;23.354;2023-08-01T06:47:22;3.03;;;2.80;;
11691;SDS011;33659;42.672;23.354;2023-08-01T06:49:49;5.70;;;3.20;;
11691;SDS011;33659;42.672;23.354;2023-08-01T06:52:16;6.10;;;3.20;;
11691;SDS011;33659;42.672;23.354;2023-08-01T06:54:43;3.63;;;3.05;;
11691;SDS011;33659;42.672;23.354;2023-08-01T06:57:10;6.47;;;2.85;;
11691;SDS011;33659;42.672;23.354;2023-08-01T06:59:36;6.30;;;3.15;;
11691;SDS011;33659;42.672;23.354;2023-08-01T07:02:03;6.53;;;3.10;;
11691;SDS011;33659;42.672;23.354;2023-08-01T07:04:32;3.72;;;2.65;;
11691;SDS011;33659;42.672;23.354;2023-08-01T07:06:59;3.17;;;2.60;;
11691;SDS011;33659;42.672;23.354;2023-08-01T07:09:26;6.45;;;3.20;;
11691;SDS011;33659;42.672;23.354;2023-08-01T07:11:52;5.07;;;2.92;;
11691;SDS011;33659;42.672;23.354;2023-08-01T07:14:19;4.43;;;2.90;;
11691;SDS011;33659;42.672;23.354;2023-08-01T07:16:46;3.05;;;2.75;;
11691;SDS011;33659;42.672;23.354;2023-08-01T07:19:13;7.40;;;3.30;;
11691;SDS011;33659;42.672;23.354;2023-08-01T07:21:41;5.03;;;2.92;;
11691;SDS011;33659;42.672;23.354;2023-08-01T07:24:09;3.80;;;3.42;;
11691;SDS011;33659;42.672;23.354;2023-08-01T07:26:36;6.95;;;2.80;;
11691;SDS011;33659;42.672;23.354;2023-08-01T07:29:03;5.65;;;2.80;;
11691;SDS011;33659;42.672;23.354;2023-08-01T07:31:29;7.28;;;2.88;;
11691;SDS011;33659;42.672;23.354;2023-08-01T07:33:56;8.90;;;4.18;;
11691;SDS011;33659;42.672;23.354;2023-08-01T07:36:23;6.72;;;3.10;;
11691;SDS011;33659;42.672;23.354;2023-08-01T07:38:51;5.03;;;3.22;;
11691;SDS011;33659;42.672;23.354;2023-08-01T07:41:19;4.35;;;3.05;;
11691;SDS011;33659;42.672;23.354;2023-08-01T07:43:45;4.65;;;3.80;;
11691;SDS011;33659;42.672;23.354;2023-08-01T07:46:13;4.63;;;3.00;;
11691;SDS011;33659;42.672;23.354;2023-08-01T07:48:40;4.00;;;2.67;;
11691;SDS011;33659;42.672;23.354;2023-08-01T07:51:07;4.35;;;2.97;;
11691;SDS011;33659;42.672;23.354;2023-08-01T07:53:34;4.80;;;3.15;;
11691;SDS011;33659;42.672;23.354;2023-08-01T07:56:04;4.25;;;2.90;;
11691;SDS011;33659;42.672;23.354;2023-08-01T07:58:32;3.83;;;2.60;;
11691;SDS011;33659;42.672;23.354;2023-08-01T08:01:02;3.40;;;2.72;;
11691;SDS011;33659;42.672;23.354;2023-08-01T08:03:29;3.33;;;2.50;;
11691;SDS011;33659;42.672;23.354;2023-08-01T08:05:56;6.90;;;3.40;;
11691;SDS011;33659;42.672;23.354;2023-08-01T08:08:23;4.70;;;3.20;;
11691;SDS011;33659;42.672;23.354;2023-08-01T08:10:49;6.90;;;2.90;;
11691;SDS011;33659;42.672;23.354;2023-08-01T08:13:18;5.75;;;3.50;;
11691;SDS011;33659;42.672;23.354;2023-08-01T08:15:45;6.60;;;2.88;;
11691;SDS011;33659;42.672;23.354;2023-08-01T08:18:12;5.32;;;2.65;;
11691;SDS011;33659;42.672;23.354;2023-08-01T08:20:42;3.70;;;2.58;;
11691;SDS011;33659;42.672;23.354;2023-08-01T08:23:10;5.15;;;2.72;;
11691;SDS011;33659;42.672;23.354;2023-08-01T08:25:39;6.15;;;2.90;;
11691;SDS011;33659;42.672;23.354;2023-08-01T08:28:06;4.90;;;2.75;;
11691;SDS011;33659;42.672;23.354;2023-08-01T08:30:34;5.18;;;3.25;;
11691;SDS011;33659;42.672;23.354;2023-08-01T08:33:01;3.33;;;3.03;;
11691;SDS011;33659;42.672;23.354;2023-08-01T08:35:32;4.70;;;2.75;;
11691;SDS011;33659;42.672;23.354;2023-08-01T08:37:59;4.07;;;3.22;;
11691;SDS011;33659;42.672;23.354;2023-08-01T08:40:28;4.25;;;3.15;;
11691;SDS011;33659;42.672;23.354;2023-08-01T08:42:55;2.88;;;2.53;;
11691;SDS011;33659;42.672;23.354;2023-08-01T08:45:25;6.30;;;2.90;;
11691;SDS011;33659;42.672;23.354;2023-08-01T08:47:54;3.50;;;2.70;;
11691;SDS011;33659;42.672;23.354;2023-08-01T08:50:22;2.70;;;2.50;;
11691;SDS011;33659;42.672;23.354;2023-08-01T08:52:50;6.40;;;2.85;;
11691;SDS011;33659;42.672;23.354;2023-08-01T08:55:17;8.77;;;3.00;;
11691;SDS011;33659;42.672;23.354;2023-08-01T08:57:47;3.30;;;2.67;;
11691;SDS011;33659;42.672;23.354;2023-08-01T09:00:16;2.60;;;2.40;;
11691;SDS011;33659;42.672;23.354;2023-08-01T09:02:43;4.43;;;2.80;;
11691;SDS011;33659;42.672;23.354;2023-08-01T09:05:12;4.93;;;2.78;;
11691;SDS011;33659;42.672;23.354;2023-08-01T09:07:39;3.85;;;2.88;;
11691;SDS011;33659;42.672;23.354;2023-08-01T09:10:09;2.90;;;2.60;;
11691;SDS011;33659;42.672;23.354;2023-08-01T09:12:36;4.15;;;2.70;;
11691;SDS011;33659;42.672;23.354;2023-08-01T09:15:03;3.72;;;2.97;;
11691;SDS011;33659;42.672;23.354;2023-08-01T09:17:30;9.20;;;3.00;;
11691;SDS011;33659;42.672;23.354;2023-08-01T09:20:02;6.13;;;2.65;;
11691;SDS011;33659;42.672;23.354;2023-08-01T09:22:41;4.38;;;2.92;;
11691;SDS011;33659;42.672;23.354;2023-08-01T09:25:10;3.05;;;2.65;;
11691;SDS011;33659;42.672;23.354;2023-08-01T09:27:37;4.28;;;2.50;;
11691;SDS011;33659;42.672;23.354;2023-08-01T09:30:07;4.80;;;2.70;;
11691;SDS011;33659;42.672;23.354;2023-08-01T09:32:36;3.50;;;2.47;;
11691;SDS011;33659;42.672;23.354;2023-08-01T09:35:03;3.83;;;2.47;;
11691;SDS011;33659;42.672;23.354;2023-08-01T09:37:40;3.85;;;2.65;;
11691;SDS011;33659;42.672;23.354;2023-08-01T09:40:09;3.42;;;2.85;;
11691;SDS011;33659;42.672;23.354;2023-08-01T09:42:39;4.38;;;2.33;;
11691;SDS011;33659;42.672;23.354;2023-08-01T09:45:12;4.75;;;2.80;;
11691;SDS011;33659;42.672;23.354;2023-08-01T09:47:40;2.90;;;2.70;;
11691;SDS011;33659;42.672;23.354;2023-08-01T09:50:08;6.13;;;2.72;;
11691;SDS011;33659;42.672;23.354;2023-08-01T09:52:36;4.90;;;2.88;;
11691;SDS011;33659;42.672;23.354;2023-08-01T09:55:05;4.28;;;2.90;;
11691;SDS011;33659;42.672;23.354;2023-08-01T09:57:32;4.20;;;2.95;;
11691;SDS011;33659;42.672;23.354;2023-08-01T10:00:03;3.35;;;2.90;;
11691;SDS011;33659;42.672;23.354;2023-08-01T10:02:31;7.97;;;2.88;;
11691;SDS011;33659;42.672;23.354;2023-08-01T10:04:59;3.10;;;2.80;;
11691;SDS011;33659;42.672;23.354;2023-08-01T10:07:28;3.80;;;3.10;;
11691;SDS011;33659;42.672;23.354;2023-08-01T10:09:57;4.13;;;3.38;;
11691;SDS011;33659;42.672;23.354;2023-08-01T10:12:26;3.63;;;2.90;;
11691;SDS011;33659;42.672;23.354;2023-08-01T10:14:54;3.45;;;3.08;;
11691;SDS011;33659;42.672;23.354;2023-08-01T10:17:22;11.90;;;3.38;;
11691;SDS011;33659;42.672;23.354;2023-08-01T10:19:51;3.50;;;3.20;;
11691;SDS011;33659;42.672;23.354;2023-08-01T10:22:22;4.55;;;3.22;;
11691;SDS011;33659;42.672;23.354;2023-08-01T10:24:50;3.33;;;2.95;;
11691;SDS011;33659;42.672;23.354;2023-08-01T10:27:18;4.65;;;3.13;;
11691;SDS011;33659;42.672;23.354;2023-08-01T10:29:57;3.90;;;3.20;;
11691;SDS011;33659;42.672;23.354;2023-08-01T10:32:27;3.55;;;2.83;;
11691;SDS011;33659;42.672;23.354;2023-08-01T10:34:57;4.88;;;2.88;;
11691;SDS011;33659;42.672;23.354;2023-08-01T10:37:24;3.42;;;3.08;;
11691;SDS011;33659;42.672;23.354;2023-08-01T10:39:56;4.60;;;3.10;;
11691;SDS011;33659;42.672;23.354;2023-08-01T10:42:23;3.58;;;3.00;;
11691;SDS011;33659;42.672;23.354;2023-08-01T10:44:50;6.07;;;3.00;;
11691;SDS011;33659;42.672;23.354;2023-08-01T10:47:26;3.38;;;2.90;;
11691;SDS011;33659;42.672;23.354;2023-08-01T10:49:53;3.00;;;2.70;;
11691;SDS011;33659;42.672;23.354;2023-08-01T10:52:21;5.97;;;2.97;;
11691;SDS011;33659;42.672;23.354;2023-08-01T10:54:55;7.68;;;3.10;;
11691;SDS011;33659;42.672;23.354;2023-08-01T10:57:24;3.53;;;2.67;;
11691;SDS011;33659;42.672;23.354;2023-08-01T10:59:51;3.17;;;2.85;;
11691;SDS011;33659;42.672;23.354;2023-08-01T11:02:22;3.95;;;2.67;;
11691;SDS011;33659;42.672;23.354;2023-08-01T11:04:57;6.25;;;2.75;;
11691;SDS011;33659;42.672;23.354;2023-08-01T11:07:25;8.88;;;3.10;;
11691;SDS011;33659;42.672;23.354;2023-08-01T11:10:02;3.35;;;2.85;;
11691;SDS011;33659;42.672;23.354;2023-08-01T11:12:30;5.18;;;2.80;;
11691;SDS011;33659;42.672;23.354;2023-08-01T11:14:58;2.80;;;2.60;;
11691;SDS011;33659;42.672;23.354;2023-08-01T11:17:26;3.60;;;3.20;;
11691;SDS011;33659;42.672;23.354;2023-08-01T11:20:01;3.03;;;2.80;;
11691;SDS011;33659;42.672;23.354;2023-08-01T11:22:29;2.75;;;2.53;;
11691;SDS011;33659;42.672;23.354;2023-08-01T11:24:56;4.50;;;4.10;;
11691;SDS011;33659;42.672;23.354;2023-08-01T11:27:23;3.45;;;2.58;;
11691;SDS011;33659;42.672;23.354;2023-08-01T11:29:50;3.35;;;2.70;;
11691;SDS011;33659;42.672;23.354;2023-08-01T11:32:17;3.38;;;2.80;;
11691;SDS011;33659;42.672;23.354;2023-08-01T11:34:45;3.28;;;2.85;;
11691;SDS011;33659;42.672;23.354;2023-08-01T11:37:14;3.67;;;3.30;;
11691;SDS011;33659;42.672;23.354;2023-08-01T11:39:44;2.42;;;2.22;;
11691;SDS011;33659;42.672;23.354;2023-08-01T11:42:14;5.18;;;2.72;;
11691;SDS011;33659;42.672;23.354;2023-08-01T11:44:42;3.05;;;2.63;;
11691;SDS011;33659;42.672;23.354;2023-08-01T11:47:10;3.30;;;2.88;;
11691;SDS011;33659;42.672;23.354;2023-08-01T11:49:38;3.35;;;2.60;;
11691;SDS011;33659;42.672;23.354;2023-08-01T11:52:06;2.80;;;2.60;;
11691;SDS011;33659;42.672;23.354;2023-08-01T11:54:44;3.63;;;2.38;;
11691;SDS011;33659;42.672;23.354;2023-08-01T11:57:11;2.97;;;2.72;;
11691;SDS011;33659;42.672;23.354;2023-08-01T11:59:45;2.67;;;2.47;;
11691;SDS011;33659;42.672;23.354;2023-08-01T12:02:20;4.47;;;2.42;;
11691;SDS011;33659;42.672;23.354;2023-08-01T12:04:47;2.75;;;2.47;;
11691;SDS011;33659;42.672;23.354;2023-08-01T12:07:15;2.53;;;2.33;;
11691;SDS011;33659;42.672;23.354;2023-08-01T12:09:42;3.47;;;2.47;;
11691;SDS011;33659;42.672;23.354;2023-08-01T12:12:10;2.92;;;2.38;;
11691;SDS011;33659;42.672;23.354;2023-08-01T12:14:40;4.90;;;2.35;;
11691;SDS011;33659;42.672;23.354;2023-08-01T12:17:07;6.20;;;2.58;;
11691;SDS011;33659;42.672;23.354;2023-08-01T12:19:34;5.95;;;3.00;;
11691;SDS011;33659;42.672;23.354;2023-08-01T12:22:01;3.40;;;2.85;;
11691;SDS011;33659;42.672;23.354;2023-08-01T12:24:27;3.22;;;2.92;;
11691;SDS011;33659;42.672;23.354;2023-08-01T12:26:54;6.80;;;3.15;;
11691;SDS011;33659;42.672;23.354;2023-08-01T12:29:22;4.07;;;2.47;;
11691;SDS011;33659;42.672;23.354;2023-08-01T12:31:49;4.22;;;2.92;;
11691;SDS011;33659;42.672;23.354;2023-08-01T12:34:16;2.85;;;2.53;;
11691;SDS011;33659;42.672;23.354;2023-08-01T12:36:43;4.40;;;2.33;;
11691;SDS011;33659;42.672;23.354;2023-08-01T12:39:09;3.47;;;2.50;;
11691;SDS011;33659;42.672;23.354;2023-08-01T12:41:36;4.70;;;2.50;;
11691;SDS011;33659;42.672;23.354;2023-08-01T12:44:03;2.65;;;2.45;;
11691;SDS011;33659;42.672;23.354;2023-08-01T12:46:32;7.18;;;3.10;;
11691;SDS011;33659;42.672;23.354;2023-08-01T12:48:58;3.42;;;2.95;;
11691;SDS011;33659;42.672;23.354;2023-08-01T12:51:25;2.50;;;2.30;;
11691;SDS011;33659;42.672;23.354;2023-08-01T12:53:52;8.10;;;2.80;;
11691;SDS011;33659;42.672;23.354;2023-08-01T12:56:19;4.13;;;2.70;;
11691;SDS011;33659;42.672;23.354;2023-08-01T12:58:45;3.67;;;2.40;;
11691;SDS011;33659;42.672;23.354;2023-08-01T13:01:12;4.35;;;2.60;;
11691;SDS011;33659;42.672;23.354;2023-08-01T13:03:40;3.22;;;2.83;;
11691;SDS011;33659;42.672;23.354;2023-08-01T13:06:09;2.45;;;2.17;;
11691;SDS011;33659;42.672;23.354;2023-08-01T13:08:37;2.95;;;2.60;;
11691;SDS011;33659;42.672;23.354;2023-08-01T13:11:09;2.80;;;2.22;;
11691;SDS011;33659;42.672;23.354;2023-08-01T13:13:37;2.67;;;2.40;;
11691;SDS011;33659;42.672;23.354;2023-08-01T13:16:04;3.50;;;2.30;;
11691;SDS011;33659;42.672;23.354;2023-08-01T13:18:31;4.47;;;2.40;;
11691;SDS011;33659;42.672;23.354;2023-08-01T13:20:59;2.60;;;2.40;;
11691;SDS011;33659;42.672;23.354;2023-08-01T13:23:26;2.58;;;2.38;;
11691;SDS011;33659;42.672;23.354;2023-08-01T13:25:53;3.28;;;2.10;;
11691;SDS011;33659;42.672;23.354;2023-08-01T13:28:20;4.40;;;2.33;;
11691;SDS011;33659;42.672;23.354;2023-08-01T13:30:47;3.45;;;2.67;;
11691;SDS011;33659;42.672;23.354;2023-08-01T13:33:13;4.65;;;2.50;;
11691;SDS011;33659;42.672;23.354;2023-08-01T13:35:40;7.25;;;2.58;;
11691;SDS011;33659;42.672;23.354;2023-08-01T13:38:08;4.18;;;2.55;;
11691;SDS011;33659;42.672;23.354;2023-08-01T13:40:35;3.85;;;2.50;;
11691;SDS011;33659;42.672;23.354;2023-08-01T13:43:02;7.32;;;2.85;;
11691;SDS011;33659;42.672;23.354;2023-08-01T13:45:29;3.38;;;2.70;;
11691;SDS011;33659;42.672;23.354;2023-08-01T13:47:57;3.58;;;2.17;;
11691;SDS011;33659;42.672;23.354;2023-08-01T13:50:24;4.10;;;2.38;;
11691;SDS011;33659;42.672;23.354;2023-08-01T13:52:51;3.67;;;2.42;;
11691;SDS011;33659;42.672;23.354;2023-08-01T13:55:19;2.80;;;2.42;;
11691;SDS011;33659;42.672;23.354;2023-08-01T13:57:46;2.95;;;2.40;;
11691;SDS011;33659;42.672;23.354;2023-08-01T14:00:13;2.72;;;2.50;;
11691;SDS011;33659;42.672;23.354;2023-08-01T14:02:40;7.53;;;2.80;;
11691;SDS011;33659;42.672;23.354;2023-08-01T14:05:07;4.18;;;2.30;;
11691;SDS011;33659;42.672;23.354;2023-08-01T14:07:35;5.13;;;2.00;;
11691;SDS011;33659;42.672;23.354;2023-08-01T14:10:02;6.28;;;2.38;;
11691;SDS011;33659;42.672;23.354;2023-08-01T14:12:31;2.53;;;2.33;;
11691;SDS011;33659;42.672;23.354;2023-08-01T14:14:57;2.25;;;1.83;;
11691;SDS011;33659;42.672;23.354;2023-08-01T14:17:24;2.42;;;2.22;;
11691;SDS011;33659;42.672;23.354;2023-08-01T14:19:51;4.38;;;2.50;;
11691;SDS011;33659;42.672;23.354;2023-08-01T14:22:18;7.43;;;2.53;;
11691;SDS011;33659;42.672;23.354;2023-08-01T14:24:45;3.42;;;2.45;;
11691;SDS011;33659;42.672;23.354;2023-08-01T14:27:11;4.47;;;2.63;;
11691;SDS011;33659;42.672;23.354;2023-08-01T14:29:40;3.60;;;2.38;;
11691;SDS011;33659;42.672;23.354;2023-08-01T14:32:07;3.13;;;2.30;;
11691;SDS011;33659;42.672;23.354;2023-08-01T14:34:33;2.72;;;2.33;;